PLVO2: Washita River nr Pauls Valley, OK

Data processed at Mon Jan 21 2019 23:32


All information presented herein is the property of the government of the United States of America and may be revised or deleted at any time without prior notice.
Dissemination of this information without the expressed written consent of the Public Affairs Office, Tulsa District U.S. Army Corps of Engineers is strictly prohibited.
These data are gathered electronically and, as presented, have not undergone any form of quality control. These data are not guaranteed to be valid or correct.
Go to home page.
Go to station list.
Go to home page.

Upstream stations:

Downstream station:
Previous Day
Next Day
Current Day
    
SHEF ID:       PLVO2     Washita River near Pauls Valley
STATION TYPE:  

               PRECIP     STAGE  RIV-FLOW  BAT-LOAD
                   in        ft       cfs      volt
              Ccp-Rev   Ccp-Rev   Ccp-Rev   Ccp-Rev
(US/Central)
01/21 00:00      0.00      6.68      1095     12.65
01/21 01:00      0.00      6.67      1091     12.65
01/21 02:00      0.00      6.66      1086     12.57
01/21 03:00      0.00      6.65      1081     12.57
01/21 04:00      0.00      6.65      1081     12.57
01/21 05:00      0.00      6.65      1081     12.57
01/21 06:00      0.00      6.63      1071     12.49
01/21 07:00      0.00      6.64      1076     12.49
01/21 08:00      0.00      6.64      1076     12.49
01/21 09:00      0.00      6.66      1086     12.49
01/21 10:00      0.00      6.65      1081     12.73
01/21 11:00      0.00      6.64      1076     13.13
01/21 12:00      0.00      6.62      1067     13.29
01/21 13:00      0.00      6.63      1071     13.21
01/21 14:00      0.00      6.60      1057     13.05
01/21 15:00      0.00      6.61      1062     12.97
01/21 16:00      0.00      6.61      1062     12.97
01/21 17:00      0.00      6.61      1062     12.89
01/21 18:00      0.00      6.58      1047     12.81
01/21 19:00      0.00      6.61      1062     12.81
01/21 20:00      0.00      6.60      1057     12.73
01/21 21:00      0.00      6.62      1067     12.73
01/21 22:00      0.00      6.60      1057     12.73
01/21 23:00      ----      ----      ----      ----